Data for 01/01/2008

Time Sea-Level Adjusted Pressure Absolute Pressure Temperature Relative Humidity Dew Point   
(mb) (inHg) (mb) (inHg) (C) (F) (%) (C) (F)
00:05 1031 30.45 861 25.43 -7.5 18.4 52 -15.9 3.4
00:10 1031 30.45 861 25.43 -7.6 18.4 50 -16.2 2.8
00:15 1032 30.47 861 25.43 -7.6 18.4 51 -16 3.2
00:20 1032 30.47 861 25.43 -7.7 18.2 53 -15.7 3.8
00:25 1032 30.47 861 25.43 -7.9 17.7 52 -16 3.1
00:30 1032 30.47 861 25.43 -8.1 17.3 53 -16.1 3
00:35 1032 30.47 861 25.43 -8.1 17.4 52 -16.4 2.5
00:40 1032 30.47 861 25.43 -8.2 17.3 53 -16.2 2.8
00:45 1032 30.47 861 25.43 -8.3 17 53 -16.2 2.8
00:50 1032 30.47 861 25.43 -8.4 17 53 -16.4 2.6
00:55 1032 30.47 861 25.43 -8.4 16.9 52 -16.6 2.2
01:00 1032 30.47 861 25.43 -8.3 17 51 -16.8 1.8
01:05 1032 30.47 861 25.43 -8.2 17.2 51 -16.7 1.9
01:10 1032 30.47 861 25.43 -8.3 17 51 -16.8 1.8
01:15 1032 30.47 861 25.43 -8.6 16.6 52 -16.7 2
01:20 1032 30.47 861 25.43 -8.9 16 52 -17 1.5
01:25 1032 30.47 861 25.43 -9.2 15.5 53 -17 1.4
01:30 1032 30.47 861 25.43 -9.3 15.3 53 -17.1 1.2
01:35 1032 30.47 861 25.43 -9.6 14.8 55 -17 1.3
01:40 1032 30.47 861 25.43 -9.7 14.5 55 -17.2 1
01:45 1032 30.47 861 25.43 -9.7 14.6 57 -16.8 1.8
01:50 1032 30.47 861 25.43 -10 13.9 58 -16.8 1.7
01:55 1032 30.47 861 25.43 -10.6 12.9 61 -16.8 1.7
02:00 1032 30.47 861 25.43 -11.1 12.1 62 -17 1.3
02:05 1032 30.47 861 25.43 -11 12.2 62 -17 1.3
02:10 1032 30.47 861 25.43 -10.7 12.7 60 -17 1.3
02:15 1032 30.47 861 25.43 -10.7 12.8 61 -16.9 1.6
02:20 1032 30.47 861 25.43 -10.6 12.9 58 -17.3 0.8
02:25 1032 30.47 861 25.43 -10.2 13.6 58 -16.9 1.5
02:30 1032 30.47 861 25.43 -10.4 13.4 59 -16.9 1.7
02:35 1032 30.47 861 25.43 -10.6 13 61 -16.7 1.9
02:40 1032 30.47 861 25.43 -10.6 12.9 62 -16.5 2.3
02:45 1032 30.47 861 25.43 -10.2 13.6 58 -17 1.5
02:50 1032 30.47 861 25.43 -9.7 14.5 58 -16.6 2.2
02:55 1032 30.47 861 25.43 -9.8 14.4 58 -16.6 2.2
03:00 1032 30.47 862 25.45 -10 14.1 59 -16.5 2.3
03:05 1032 30.47 862 25.45 -10.2 13.7 60 -16.5 2.4
03:10 1032 30.47 862 25.45 -10.7 12.8 63 -16.5 2.3
03:15 1032 30.47 862 25.45 -10.9 12.5 64 -16.4 2.4
03:20 1032 30.47 862 25.45 -10.9 12.3 63 -16.7 2
03:25 1032 30.47 862 25.45 -10.8 12.5 62 -16.8 1.7
03:30 1032 30.47 862 25.45 -10.8 12.6 61 -16.8 1.7
03:35 1032 30.47 862 25.45 -10.9 12.3 62 -16.9 1.6
03:40 1032 30.47 862 25.45 -11 12.2 62 -17 1.5
03:45 1033 30.5 862 25.45 -11 12.2 62 -17 1.4
03:50 1033 30.5 862 25.45 -11 12.3 61 -17 1.3
03:55 1033 30.5 862 25.45 -11 12.2 62 -16.9 1.6
04:00 1033 30.5 862 25.45 -11.1 12 63 -16.8 1.7
04:05 1033 30.5 862 25.45 -11.3 11.7 63 -17 1.3
04:10 1033 30.5 862 25.45 -11 12.3 61 -17.1 1.2
04:15 1033 30.5 862 25.45 -10.8 12.6 60 -17.1 1.2
04:20 1033 30.5 862 25.45 -10.6 13 58 -17.2 1
04:25 1033 30.5 862 25.45 -10.6 13 58 -17.3 0.8
04:30 1033 30.5 862 25.45 -10.5 13.1 60 -16.9 1.6
04:35 1033 30.5 862 25.45 -10.6 13 58 -17.3 0.8
04:40 1033 30.5 862 25.45 -10.5 13.1 58 -17.2 1.1
04:45 1033 30.5 862 25.45 -10.9 12.5 59 -17.4 0.7
04:50 1033 30.5 862 25.45 -11.6 11.2 61 -17.7 0.1
04:55 1033 30.5 862 25.45 -12 10.4 63 -17.7 0.1
05:00 1033 30.5 862 25.45 -12.2 10.1 63 -17.9 -0.2
05:05 1033 30.5 862 25.45 -12.4 9.6 64 -17.9 -0.2
05:10 1033 30.5 862 25.45 -12.4 9.6 63 -18.1 -0.6
05:15 1033 30.5 862 25.45 -12.5 9.6 63 -18 -0.5
05:20 1033 30.5 862 25.45 -12.5 9.6 63 -18.2 -0.7
05:25 1033 30.5 862 25.45 -12.4 9.7 63 -18.1 -0.5
05:30 1033 30.5 862 25.45 -12.2 10.1 62 -18.1 -0.6
05:35 1033 30.5 862 25.45 -12.3 9.9 64 -17.8 -0.1
05:40 1033 30.5 862 25.45 -12.5 9.6 64 -18 -0.4
05:45 1033 30.5 862 25.45 -12.5 9.6 64 -18 -0.4
05:50 1033 30.5 862 25.45 -12.6 9.3 64 -18.1 -0.5
05:55 1033 30.5 862 25.45 -13 8.7 65 -18.3 -0.9
06:00 1033 30.5 862 25.45 -13.1 8.3 64 -18.5 -1.4
06:05 1033 30.5 862 25.45 -12.7 9.1 63 -18.4 -1.2
06:10 1033 30.5 863 25.48 -12.5 9.5 62 -18.4 -1
06:15 1033 30.5 863 25.48 -13.3 8 68 -18 -0.5
06:20 1033 30.5 863 25.48 -13.6 7.6 69 -18.1 -0.5
06:25 1033 30.5 862 25.45 -13.5 7.7 66 -18.7 -1.6
06:30 1033 30.5 862 25.45 -13.3 8.1 66 -18.3 -1
06:35 1033 30.5 863 25.48 -13.1 8.4 66 -18.3 -0.9
06:40 1033 30.5 862 25.45 -12.8 9 62 -18.6 -1.4
06:45 1033 30.5 862 25.45 -12.5 9.5 62 -18.3 -1
06:50 1033 30.5 862 25.45 -12.9 8.9 64 -18.2 -0.8
06:55 1033 30.5 862 25.45 -13.6 7.5 67 -18.5 -1.2
07:00 1033 30.5 862 25.45 -13.6 7.6 65 -18.8 -1.9
07:05 1033 30.5 862 25.45 -13.5 7.7 66 -18.6 -1.4
07:10 1033 30.5 862 25.45 -13.8 7.2 66 -18.8 -1.8
07:15 1033 30.5 862 25.45 -13.7 7.3 66 -18.9 -2
07:20 1033 30.5 862 25.45 -13.7 7.3 66 -18.7 -1.7
07:25 1033 30.5 862 25.45 -13.8 7.1 67 -18.8 -1.8
07:30 1033 30.5 862 25.45 -13.4 8 66 -18.5 -1.2
07:35 1033 30.5 862 25.45 -13.2 8.3 65 -18.4 -1.2
07:40 1033 30.5 863 25.48 -13.5 7.8 66 -18.6 -1.5
07:45 1033 30.5 863 25.48 -13.3 8.1 65 -18.5 -1.4
07:50 1033 30.5 863 25.48 -13 8.6 63 -18.6 -1.4
07:55 1033 30.5 863 25.48 -12.9 8.7 64 -18.4 -1.2
08:00 1033 30.5 863 25.48 -13.2 8.2 64 -18.7 -1.7
08:05 1033 30.5 863 25.48 -13.6 7.6 65 -18.9 -2
08:10 1033 30.5 863 25.48 -13.7 7.4 67 -18.6 -1.5
08:15 1033 30.5 863 25.48 -13.5 7.6 66 -18.5 -1.4
08:20 1033 30.5 863 25.48 -13.1 8.5 62 -18.9 -2
08:25 1033 30.5 863 25.48 -12.7 9.1 62 -18.6 -1.5
08:30 1033 30.5 863 25.48 -12.4 9.6 59 -18.8 -1.8
08:35 1033 30.5 863 25.48 -12.1 10.3 57 -18.9 -2
08:40 1034 30.53 863 25.48 -11.7 10.9 58 -18.5 -1.4
08:45 1034 30.53 863 25.48 -11.4 11.5 55 -18.7 -1.6
08:50 1034 30.53 863 25.48 -11.4 11.5 55 -18.7 -1.6
08:55 1034 30.53 863 25.48 -11.3 11.7 55 -18.6 -1.6
09:00 1034 30.53 863 25.48 -11.1 12.1 54 -18.7 -1.6
09:05 1034 30.53 863 25.48 -11.1 12 54 -18.6 -1.5
09:10 1034 30.53 863 25.48 -10.8 12.5 53 -18.6 -1.5
09:15 1034 30.53 863 25.48 -10.5 13.1 52 -18.6 -1.4
09:20 1034 30.53 863 25.48 -10.3 13.5 50 -18.7 -1.7
09:25 1034 30.53 863 25.48 -10 14 50 -18.6 -1.5
09:30 1034 30.53 863 25.48 -9.6 14.7 48 -18.6 -1.5
09:35 1034 30.53 863 25.48 -9.1 15.6 47 -18.5 -1.3
09:40 1034 30.53 863 25.48 -9.5 14.9 50 -18.2 -0.7
09:45 1034 30.53 863 25.48 -9.3 15.2 48 -18.5 -1.2
09:50 1034 30.53 863 25.48 -8.9 15.9 47 -18.3 -0.9
09:55 1034 30.53 863 25.48 -9 15.9 49 -17.9 -0.2
10:00 1034 30.53 863 25.48 -9.4 15.1 48 -18.5 -1.3
10:05 1034 30.53 863 25.48 -9.3 15.2 49 -18.3 -0.9
10:10 1034 30.53 863 25.48 -9.2 15.5 47 -18.4 -1.1
10:15 1034 30.53 864 25.51 -8.2 17.2 43 -18.7 -1.7
10:20 1034 30.53 864 25.51 -7.7 18.1 43 -18.2 -0.7
10:25 1034 30.53 864 25.51 -7.7 18.2 43 -18.1 -0.7
10:30 1034 30.53 864 25.51 -7.3 18.9 42 -18.1 -0.6
10:35 1034 30.53 864 25.51 -7.3 18.9 42 -18.1 -0.6
10:40 1034 30.53 864 25.51 -7.1 19.2 43 -17.8 0
10:45 1034 30.53 864 25.51 -6.9 19.7 41 -18 -0.4
10:50 1034 30.53 863 25.48 -6.8 19.7 41 -18.1 -0.6
10:55 1034 30.53 863 25.48 -6.6 20.1 41 -17.9 -0.3
11:00 1034 30.53 863 25.48 -6.3 20.6 40 -17.9 -0.2
11:05 1034 30.53 863 25.48 -6.3 20.7 39 -18 -0.3
11:10 1034 30.53 863 25.48 -5.9 21.4 40 -17.6 0.3
11:15 1034 30.53 863 25.48 -6.2 20.9 41 -17.4 0.7
11:20 1034 30.53 863 25.48 -6.1 21.1 41 -17.2 1
11:25 1034 30.53 863 25.48 -5.5 22 38 -17.7 0.1
11:30 1034 30.53 863 25.48 -5.4 22.2 39 -17.5 0.6
11:35 1034 30.53 863 25.48 -5.6 22 40 -17.3 0.9
11:40 1034 30.53 863 25.48 -5.8 21.6 41 -17.1 1.2
11:45 1034 30.53 863 25.48 -5.7 21.7 42 -16.7 1.9
11:50 1034 30.53 863 25.48 -5.2 22.6 42 -16.2 2.8
11:55 1034 30.53 863 25.48 -4.9 23.2 42 -16 3.1
12:00 1034 30.53 863 25.48 -4.5 23.8 40 -16.2 2.8
12:05 1034 30.53 863 25.48 -4.3 24.2 39 -16.4 2.4
12:10 1033 30.5 863 25.48 -4.7 23.5 42 -15.8 3.5
12:15 1033 30.5 863 25.48 -5.4 22.4 43 -16 3.3
12:20 1033 30.5 863 25.48 -5.5 22.1 43 -16.3 2.7
12:25 1033 30.5 863 25.48 -5 23.1 40 -16.7 1.9
12:30 1033 30.5 862 25.45 -4.7 23.5 41 -16 3.1
12:35 1033 30.5 862 25.45 -4.7 23.5 42 -15.7 3.8
12:40 1033 30.5 862 25.45 -5.4 22.3 43 -16.1 3.1
12:45 1033 30.5 862 25.45 -5 22.9 43 -15.7 3.8
12:50 1033 30.5 862 25.45 -5 23 41 -16.2 2.9
12:55 1033 30.5 862 25.45 -4.6 23.7 39 -16.6 2.1
13:00 1033 30.5 862 25.45 -5.6 22 45 -15.7 3.8
13:05 1033 30.5 862 25.45 -5.3 22.4 42 -16.4 2.4
13:10 1033 30.5 862 25.45 -5.7 21.7 44 -16.2 2.8
13:15 1033 30.5 862 25.45 -5.6 21.9 44 -16.1 3.1
13:20 1033 30.5 862 25.45 -6.2 20.8 46 -16.2 2.9
13:25 1033 30.5 862 25.45 -5.8 21.7 43 -16.3 2.6
13:30 1033 30.5 862 25.45 -4.6 23.6 39 -16.7 1.9
13:35 1032 30.47 862 25.45 -4.9 23.2 41 -16.1 3.1
13:40 1032 30.47 862 25.45 -5 23.1 40 -16.7 2
13:45 1032 30.47 862 25.45 -4.7 23.5 39 -16.6 2.1
13:50 1032 30.47 862 25.45 -4.9 23.2 39 -16.7 2
13:55 1032 30.47 861 25.43 -5 22.9 42 -16.1 3.1
14:00 1032 30.47 862 25.45 -5 23 46 -15 5
14:05 1032 30.47 861 25.43 -4.3 24.2 42 -15.6 4
14:10 1032 30.47 861 25.43 -4.4 24.1 42 -15.5 4.1
14:15 1032 30.47 861 25.43 -3.7 25.3 38 -16.2 2.9
14:20 1032 30.47 861 25.43 -4 24.8 38 -16.5 2.4
14:25 1032 30.47 861 25.43 -5.2 22.7 41 -16.5 2.3
14:30 1032 30.47 861 25.43 -5.5 22.1 41 -16.9 1.6
14:35 1032 30.47 861 25.43 -5.1 22.8 39 -17 1.4
14:40 1032 30.47 861 25.43 -5.2 22.6 39 -17 1.4
14:45 1032 30.47 861 25.43 -4.9 23.2 38 -17.2 1
14:50 1032 30.47 861 25.43 -4.7 23.6 36 -17.7 0.2
14:55 1032 30.47 861 25.43 -4.6 23.7 37 -17.1 1.3
15:00 1032 30.47 861 25.43 -3.6 25.6 36 -16.5 2.2
15:05 1032 30.47 861 25.43 -3.3 26.1 35 -16.6 2.2
15:10 1032 30.47 861 25.43 -3.4 25.8 39 -15.5 4.1
15:15 1032 30.47 861 25.43 -3.9 24.9 41 -15.3 4.5
15:20 1032 30.47 861 25.43 -4.1 24.7 41 -15.4 4.3
15:25 1032 30.47 861 25.43 -4.1 24.6 42 -15.1 4.8
15:30 1032 30.47 861 25.43 -4.3 24.3 43 -15.2 4.6
15:35 1032 30.47 861 25.43 -4.1 24.5 42 -15.3 4.5
15:40 1032 30.47 861 25.43 -3.9 24.9 42 -15.1 4.9
15:45 1032 30.47 861 25.43 -4.3 24.3 42 -15.3 4.5
15:50 1032 30.47 861 25.43 -4.5 23.9 42 -15.5 4.1
15:55 1032 30.47 861 25.43 -4.6 23.8 42 -15.6 3.9
16:00 1032 30.47 861 25.43 -4.4 24.1 43 -15.2 4.6
16:05 1032 30.47 861 25.43 -4.5 23.8 43 -15.3 4.4
16:10 1032 30.47 861 25.43 -4.5 23.9 43 -15.3 4.5
16:15 1032 30.47 861 25.43 -4.3 24.2 40 -16 3.3
16:20 1032 30.47 861 25.43 -4.6 23.8 41 -16 3.1
16:25 1032 30.47 861 25.43 -4.8 23.4 41 -16.1 3
16:30 1032 30.47 861 25.43 -4.6 23.7 41 -15.9 3.4
16:35 1032 30.47 861 25.43 -4.8 23.4 41 -16 3.2
16:40 1032 30.47 861 25.43 -5.6 21.8 45 -15.8 3.5
16:45 1032 30.47 861 25.43 -6.4 20.4 49 -15.5 4.1
16:50 1032 30.47 861 25.43 -6.8 19.8 49 -15.8 3.6
16:55 1032 30.47 861 25.43 -6.8 19.7 52 -15.1 4.8
17:00 1032 30.47 861 25.43 -6.9 19.5 49 -15.9 3.3
17:05 1032 30.47 861 25.43 -6.9 19.6 51 -15.4 4.2
17:10 1031 30.45 861 25.43 -7.2 19.1 50 -16 3.2
17:15 1031 30.45 861 25.43 -7.3 18.8 49 -16.2 2.8
17:20 1031 30.45 861 25.43 -7.9 17.7 51 -16.4 2.4
17:25 1031 30.45 861 25.43 -8.6 16.5 52 -16.7 1.9
17:30 1031 30.45 861 25.43 -8.9 16.1 52 -17 1.3
17:35 1031 30.45 861 25.43 -9 15.8 51 -17.3 0.8
17:40 1031 30.45 860 25.4 -9 15.7 52 -17.3 0.8
17:45 1031 30.45 860 25.4 -9.3 15.4 52 -17.3 0.8
17:50 1031 30.45 860 25.4 -9.4 15 53 -17.3 0.9
17:55 1031 30.45 860 25.4 -9.7 14.6 55 -17.1 1.2
18:00 1031 30.45 860 25.4 -9.7 14.5 55 -17.2 1.1
18:05 1031 30.45 860 25.4 -9.6 14.7 56 -16.7 1.9
18:10 1031 30.45 860 25.4 -9.6 14.7 54 -17.2 1
18:15 1031 30.45 860 25.4 -9.5 14.9 52 -17.6 0.4
18:20 1031 30.45 860 25.4 -9.4 15.1 51 -17.8 -0
18:25 1031 30.45 860 25.4 -9.3 15.2 50 -18 -0.5
18:30 1031 30.45 860 25.4 -9.2 15.5 48 -18.4 -1.1
18:35 1031 30.45 860 25.4 -9 15.7 47 -18.3 -1
18:40 1031 30.45 860 25.4 -9 15.8 47 -18.3 -0.9
18:45 1031 30.45 860 25.4 -9 15.7 50 -17.7 0.1
18:50 1031 30.45 860 25.4 -9.3 15.3 51 -17.6 0.3
18:55 1031 30.45 860 25.4 -9.6 14.7 52 -17.8 -0.1
19:00 1031 30.45 860 25.4 -9.4 15.2 50 -18 -0.3
19:05 1030 30.42 860 25.4 -9.4 15.1 49 -18.3 -0.9
19:10 1030 30.42 860 25.4 -9.5 14.9 49 -18.4 -1.2
19:15 1030 30.42 860 25.4 -9.4 15 48 -18.5 -1.3
19:20 1030 30.42 860 25.4 -9.5 14.8 49 -18.5 -1.3
19:25 1030 30.42 860 25.4 -9.4 15 48 -18.5 -1.3
19:30 1030 30.42 859 25.37 -9.3 15.3 48 -18.3 -1
19:35 1030 30.42 859 25.37 -9.5 14.9 50 -18.2 -0.7
19:40 1030 30.42 859 25.37 -9.8 14.4 51 -18.1 -0.5
19:45 1030 30.42 859 25.37 -9.9 14.3 52 -18 -0.3
19:50 1030 30.42 859 25.37 -9.9 14.3 52 -17.9 -0.3
19:55 1030 30.42 859 25.37 -9.7 14.5 49 -18.5 -1.4
20:00 1030 30.42 859 25.37 -9.4 15.1 47 -18.7 -1.6
20:05 1030 30.42 859 25.37 -9 15.7 49 -17.9 -0.2
20:10 1030 30.42 859 25.37 -9.1 15.7 51 -17.5 0.5
20:15 1030 30.42 860 25.4 -9.4 15.1 54 -17 1.4
20:20 1030 30.42 859 25.37 -9.3 15.3 55 -16.8 1.8
20:25 1030 30.42 859 25.37 -9.7 14.5 57 -16.8 1.7
20:30 1030 30.42 859 25.37 -10.5 13.1 59 -17 1.4
20:35 1030 30.42 859 25.37 -11 12.2 58 -17.8 0
20:40 1030 30.42 859 25.37 -10.9 12.4 59 -17.4 0.6
20:45 1030 30.42 859 25.37 -10.5 13.1 54 -18.1 -0.6
20:50 1030 30.42 859 25.37 -9.8 14.3 53 -17.7 0.2
20:55 1030 30.42 859 25.37 -9.5 15 54 -17.2 1.1
21:00 1030 30.42 859 25.37 -9.4 15.1 54 -17 1.3
21:05 1030 30.42 859 25.37 -9.5 15 55 -16.9 1.6
21:10 1030 30.42 859 25.37 -9.5 15 55 -17 1.4
21:15 1030 30.42 859 25.37 -9.4 15 54 -17.1 1.3
21:20 1029 30.39 859 25.37 -9.6 14.7 55 -17.1 1.3
21:25 1029 30.39 859 25.37 -9.9 14.2 54 -17.5 0.4
21:30 1029 30.39 858 25.34 -10 14 54 -17.6 0.3
21:35 1029 30.39 858 25.34 -10.2 13.7 54 -17.8 0
21:40 1029 30.39 858 25.34 -9.8 14.3 51 -18.2 -0.8
21:45 1029 30.39 858 25.34 -9.1 15.7 48 -18.1 -0.6
21:50 1029 30.39 858 25.34 -9 15.9 51 -17.4 0.8
21:55 1029 30.39 858 25.34 -9.2 15.4 53 -17.2 1
22:00 1028 30.36 858 25.34 -9.3 15.3 52 -17.5 0.5
22:05 1028 30.36 858 25.34 -9.2 15.4 51 -17.5 0.5
22:10 1028 30.36 858 25.34 -9.1 15.6 51 -17.5 0.5
22:15 1028 30.36 858 25.34 -8.7 16.3 50 -17.3 0.8
22:20 1028 30.36 858 25.34 -8 17.5 50 -16.6 2.1
22:25 1028 30.36 858 25.34 -8.2 17.2 52 -16.3 2.6
22:30 1028 30.36 858 25.34 -9 15.9 55 -16.5 2.3
22:35 1028 30.36 858 25.34 -9.9 14.2 59 -16.6 2.2
22:40 1028 30.36 858 25.34 -10.4 13.3 59 -17 1.4
22:45 1028 30.36 857 25.31 -10.2 13.7 57 -17.1 1.2
22:50 1028 30.36 857 25.31 -9.8 14.4 55 -17.3 0.9
22:55 1028 30.36 857 25.31 -9.6 14.7 54 -17.2 1.1
23:00 1028 30.36 857 25.31 -9.9 14.3 56 -17 1.4
23:05 1028 30.36 857 25.31 -10.1 13.9 54 -17.6 0.3
23:10 1028 30.36 857 25.31 -9.9 14.2 55 -17.3 0.8
23:15 1028 30.36 857 25.31 -10 14 56 -17.3 0.9
23:20 1028 30.36 857 25.31 -10.3 13.6 57 -17.3 0.9
23:25 1028 30.36 857 25.31 -10.2 13.7 57 -17.3 0.9
23:30 1028 30.36 857 25.31 -10.1 13.9 56 -17.2 1
23:35 1028 30.36 857 25.31 -9.9 14.1 55 -17.4 0.7
23:40 1028 30.36 857 25.31 -9.8 14.4 55 -17.2 1.1
23:45 1028 30.36 857 25.31 -9.8 14.3 56 -17.1 1.2
23:50 1028 30.36 857 25.31 -9.9 14.1 55 -17.4 0.7
23:55 1028 30.36 857 25.31 -9.9 14.2 53 -17.7 0.1
24:00 1028 30.36 857 25.31 -9.7 14.6 53 -17.6 0.3